createdAt,value
2018-12-22T00:00:22.676Z,997.4
2018-12-22T00:01:24.528Z,997.4
2018-12-22T00:02:26.559Z,997.4
2018-12-22T00:03:28.385Z,997.4
2018-12-22T00:04:30.260Z,997.3
2018-12-22T00:05:32.141Z,997.4
2018-12-22T00:06:33.986Z,997.4
2018-12-22T00:07:35.627Z,997.4
2018-12-22T00:08:37.081Z,997.4
2018-12-22T00:09:38.748Z,997.4
2018-12-22T00:10:40.175Z,997.4
2018-12-22T00:11:41.596Z,997.4
2018-12-22T00:12:43.155Z,997.4
2018-12-22T00:13:45.067Z,997.5
2018-12-22T00:14:46.928Z,997.5
2018-12-22T00:15:48.830Z,997.5
2018-12-22T00:16:50.659Z,997.5
2018-12-22T00:17:52.455Z,997.4
2018-12-22T00:18:53.928Z,997.5
2018-12-22T00:19:55.784Z,997.5
2018-12-22T00:20:57.543Z,997.5
2018-12-22T00:21:59.494Z,997.5
2018-12-22T00:23:01.359Z,997.4
2018-12-22T00:24:03.310Z,997.5
2018-12-22T00:25:05.192Z,997.5
2018-12-22T00:26:07.140Z,997.5
2018-12-22T00:27:09.041Z,997.4
2018-12-22T00:28:10.921Z,997.5
2018-12-22T00:29:12.844Z,997.5
2018-12-22T00:30:14.787Z,997.5
2018-12-22T00:31:16.732Z,997.4
2018-12-22T00:32:18.852Z,997.5
2018-12-22T00:33:20.979Z,997.5
2018-12-22T00:34:22.933Z,997.5
2018-12-22T00:35:25.000Z,997.5
2018-12-22T00:36:27.086Z,997.5
2018-12-22T00:37:28.975Z,997.5
2018-12-22T00:38:30.994Z,997.5
2018-12-22T00:39:33.076Z,997.5
2018-12-22T00:40:34.976Z,997.5
2018-12-22T00:41:36.874Z,997.5
2018-12-22T00:42:38.872Z,997.5
2018-12-22T00:43:40.684Z,997.5
2018-12-22T00:44:42.682Z,997.6
2018-12-22T00:45:44.882Z,997.6
2018-12-22T00:46:46.797Z,997.6
2018-12-22T00:47:48.888Z,997.7
2018-12-22T00:48:50.951Z,997.6
2018-12-22T00:49:53.153Z,997.6
2018-12-22T00:50:55.217Z,997.6
2018-12-22T00:51:57.260Z,997.6
2018-12-22T00:52:59.510Z,997.6
2018-12-22T00:54:01.656Z,997.7
2018-12-22T00:55:04.175Z,997.6
2018-12-22T00:56:05.769Z,997.6
2018-12-22T00:57:07.875Z,997.7
2018-12-22T00:58:10.041Z,997.6
2018-12-22T00:59:11.961Z,997.6
2018-12-22T01:00:14.072Z,997.7
2018-12-22T01:01:16.054Z,997.6
2018-12-22T01:02:17.997Z,997.6
2018-12-22T01:03:19.995Z,997.7
2018-12-22T01:04:21.937Z,997.8
2018-12-22T01:05:23.923Z,997.8
2018-12-22T01:06:25.964Z,997.8
2018-12-22T01:07:28.106Z,997.8
2018-12-22T01:08:30.463Z,997.7
2018-12-22T01:09:32.581Z,997.7
2018-12-22T01:10:34.773Z,997.6
2018-12-22T01:11:36.963Z,997.7
2018-12-22T01:12:39.211Z,997.7
2018-12-22T01:13:41.765Z,997.7
2018-12-22T01:14:44.167Z,997.7
2018-12-22T01:15:46.642Z,997.7
2018-12-22T01:16:49.041Z,997.8
2018-12-22T01:17:51.726Z,997.8
2018-12-22T01:18:54.028Z,997.8
2018-12-22T01:19:56.226Z,997.9
2018-12-22T01:20:58.388Z,997.8
2018-12-22T01:22:00.810Z,997.9
2018-12-22T01:23:03.251Z,997.8
2018-12-22T01:24:06.850Z,997.9
2018-12-22T01:25:13.274Z,997.9
2018-12-22T01:26:16.689Z,997.9
2018-12-22T01:27:21.685Z,997.9
2018-12-22T01:28:27.220Z,997.9
2018-12-22T01:29:32.247Z,997.9
2018-12-22T01:30:37.989Z,998.0
2018-12-22T01:31:44.344Z,997.9
2018-12-22T01:32:49.057Z,997.9
2018-12-22T01:33:55.196Z,997.9
2018-12-22T01:35:03.693Z,998.0
2018-12-22T01:36:07.516Z,997.9
2018-12-22T01:37:11.190Z,998.0
2018-12-22T01:38:16.224Z,997.9
2018-12-22T01:39:23.297Z,997.8
2018-12-22T01:40:28.226Z,997.9
2018-12-22T01:41:34.195Z,998.0
2018-12-22T01:42:39.699Z,997.9
2018-12-22T01:43:43.612Z,998.0
2018-12-22T01:44:46.266Z,997.9
2018-12-22T01:45:51.904Z,997.9
2018-12-22T01:46:55.307Z,998.0
2018-12-22T01:47:57.874Z,998.0
2018-12-22T01:48:59.418Z,998.0
2018-12-22T01:50:02.809Z,997.9
2018-12-22T01:51:05.452Z,997.9
2018-12-22T01:52:10.067Z,998.0
2018-12-22T01:53:14.091Z,997.9
2018-12-22T01:54:15.633Z,998.0
2018-12-22T01:55:19.916Z,997.9
2018-12-22T01:56:22.918Z,998.0
2018-12-22T01:57:27.840Z,997.9
2018-12-22T01:58:34.066Z,997.9
2018-12-22T01:59:37.788Z,997.9
2018-12-22T02:00:40.764Z,997.9
2018-12-22T02:01:43.741Z,997.9
2018-12-22T02:02:45.796Z,997.9
2018-12-22T02:03:47.340Z,997.9
2018-12-22T02:04:50.624Z,997.9
2018-12-22T02:05:54.425Z,998.0
2018-12-22T02:06:57.669Z,997.9
2018-12-22T02:07:59.248Z,998.0
2018-12-22T02:09:02.598Z,997.9
2018-12-22T02:10:04.997Z,997.9
2018-12-22T02:11:08.139Z,998.0
2018-12-22T02:12:10.808Z,997.9
2018-12-22T02:13:24.199Z,997.9
2018-12-22T02:14:26.017Z,997.9
2018-12-22T02:15:29.772Z,997.9
2018-12-22T02:16:32.235Z,997.9
2018-12-22T02:17:36.893Z,997.9
2018-12-22T02:18:40.700Z,998.0
2018-12-22T02:19:45.511Z,997.9
2018-12-22T02:20:47.769Z,997.9
2018-12-22T02:21:50.951Z,997.9
2018-12-22T02:22:53.367Z,997.9
2018-12-22T02:23:56.597Z,997.9
2018-12-22T02:25:00.599Z,997.9
2018-12-22T02:26:05.833Z,997.9
2018-12-22T02:27:10.391Z,997.9
2018-12-22T02:28:14.704Z,997.9
2018-12-22T02:29:18.343Z,997.9
2018-12-22T02:30:22.903Z,997.8
2018-12-22T02:31:27.927Z,997.8
2018-12-22T02:32:32.190Z,997.8
2018-12-22T02:33:36.706Z,997.8
2018-12-22T02:34:42.034Z,997.7
2018-12-22T02:35:44.908Z,997.8
2018-12-22T02:36:51.264Z,997.7
2018-12-22T02:37:55.573Z,997.7
2018-12-22T02:39:00.842Z,997.8
2018-12-22T02:40:05.123Z,997.7
2018-12-22T02:41:09.711Z,997.8
2018-12-22T02:42:16.323Z,997.8
2018-12-22T02:43:20.221Z,997.7
2018-12-22T02:44:25.708Z,997.7
2018-12-22T02:45:29.724Z,997.7
2018-12-22T02:46:33.826Z,997.7
2018-12-22T02:47:37.714Z,997.7
2018-12-22T02:48:40.017Z,997.7
2018-12-22T02:49:46.710Z,997.7
2018-12-22T02:50:49.552Z,997.6
2018-12-22T02:51:54.268Z,997.7
2018-12-22T02:52:58.220Z,997.7
2018-12-22T02:54:05.443Z,997.7
2018-12-22T02:55:08.709Z,997.7
2018-12-22T02:56:12.290Z,997.7
2018-12-22T02:57:13.758Z,997.6
2018-12-22T02:58:16.120Z,997.6
2018-12-22T02:59:22.065Z,997.7
2018-12-22T03:00:27.217Z,997.6
2018-12-22T03:01:34.776Z,997.6
2018-12-22T03:02:36.215Z,997.6
2018-12-22T03:03:38.882Z,997.6
2018-12-22T03:04:45.712Z,997.5
2018-12-22T03:05:50.364Z,997.6
2018-12-22T03:06:55.284Z,997.5
2018-12-22T03:07:59.292Z,997.5
2018-12-22T03:09:01.544Z,997.5
2018-12-22T03:10:05.442Z,997.5
2018-12-22T03:11:11.785Z,997.5
2018-12-22T03:12:13.443Z,997.5
2018-12-22T03:13:14.986Z,997.4
2018-12-22T03:14:16.425Z,997.4
2018-12-22T03:15:21.031Z,997.4
2018-12-22T03:16:24.724Z,997.4
2018-12-22T03:17:28.417Z,997.4
2018-12-22T03:18:32.716Z,997.3
2018-12-22T03:19:34.269Z,997.3
2018-12-22T03:20:39.805Z,997.3
2018-12-22T03:21:43.301Z,997.3
2018-12-22T03:22:47.217Z,997.3
2018-12-22T03:23:51.807Z,997.3
2018-12-22T03:24:55.220Z,997.2
2018-12-22T03:25:58.273Z,997.3
2018-12-22T03:27:01.970Z,997.3
2018-12-22T03:28:05.353Z,997.3
2018-12-22T03:29:15.425Z,997.3
2018-12-22T03:30:20.220Z,997.3
2018-12-22T03:31:26.063Z,997.3
2018-12-22T03:32:34.297Z,997.2
2018-12-22T03:33:38.765Z,997.2
2018-12-22T03:34:41.954Z,997.2
2018-12-22T03:35:44.828Z,997.1
2018-12-22T03:36:48.722Z,997.1
2018-12-22T03:37:53.721Z,997.1
2018-12-22T03:38:53.747Z,997.1
2018-12-22T03:39:58.886Z,997.0
2018-12-22T03:41:02.582Z,997.1
2018-12-22T03:42:05.043Z,997.0
2018-12-22T03:43:09.953Z,997.0
2018-12-22T03:44:13.969Z,997.0
2018-12-22T03:45:23.072Z,996.9
2018-12-22T03:46:29.224Z,996.9
2018-12-22T03:47:34.451Z,996.9
2018-12-22T03:48:39.393Z,996.8
2018-12-22T03:49:42.266Z,996.8
2018-12-22T03:50:49.852Z,996.8
2018-12-22T03:51:55.570Z,996.7
2018-12-22T03:53:00.724Z,996.7
2018-12-22T03:54:03.725Z,996.7
2018-12-22T03:55:09.541Z,996.7
2018-12-22T03:56:13.848Z,996.7
2018-12-22T03:57:19.490Z,996.6
2018-12-22T03:58:24.924Z,996.6
2018-12-22T03:59:29.305Z,996.6
2018-12-22T04:00:30.771Z,996.6
2018-12-22T04:01:32.178Z,996.6
2018-12-22T04:02:33.653Z,996.6
2018-12-22T04:03:35.125Z,996.5
2018-12-22T04:04:36.539Z,996.5
2018-12-22T04:05:37.986Z,996.5
2018-12-22T04:06:39.414Z,996.4
2018-12-22T04:07:40.850Z,996.4
2018-12-22T04:08:42.350Z,996.4
2018-12-22T04:09:43.845Z,996.4
2018-12-22T04:10:45.353Z,996.4
2018-12-22T04:11:46.759Z,996.4
2018-12-22T04:12:48.197Z,996.4
2018-12-22T04:13:49.614Z,996.4
2018-12-22T04:14:51.155Z,996.4
2018-12-22T04:15:52.653Z,996.4
2018-12-22T04:16:54.080Z,996.4
2018-12-22T04:17:55.594Z,996.5
2018-12-22T04:18:56.984Z,996.5
2018-12-22T04:19:58.402Z,996.5
2018-12-22T04:20:59.798Z,996.5
2018-12-22T04:22:01.210Z,996.5
2018-12-22T04:23:02.651Z,996.5
2018-12-22T04:24:04.395Z,996.5
2018-12-22T04:25:06.059Z,996.5
2018-12-22T04:26:07.747Z,996.4
2018-12-22T04:27:09.476Z,996.4
2018-12-22T04:28:11.115Z,996.4
2018-12-22T04:29:12.709Z,996.3
2018-12-22T04:30:14.342Z,996.3
2018-12-22T04:31:16.039Z,996.3
2018-12-22T04:32:17.607Z,996.3
2018-12-22T04:33:19.314Z,996.3
2018-12-22T04:34:20.994Z,996.2
2018-12-22T04:35:22.763Z,996.2
2018-12-22T04:36:24.588Z,996.2
2018-12-22T04:37:26.917Z,996.1
2018-12-22T04:38:29.008Z,996.1
2018-12-22T04:39:31.849Z,996.0
2018-12-22T04:40:33.939Z,995.9
2018-12-22T04:41:35.813Z,996.0
2018-12-22T04:42:37.797Z,995.9
2018-12-22T04:43:39.585Z,996.0
2018-12-22T04:44:42.795Z,996.0
2018-12-22T04:45:45.702Z,996.0
2018-12-22T04:46:48.205Z,995.9
2018-12-22T04:47:51.186Z,996.0
2018-12-22T04:48:53.190Z,996.0
2018-12-22T04:49:55.697Z,995.9
2018-12-22T04:50:58.878Z,996.0
2018-12-22T04:52:02.014Z,996.0
2018-12-22T04:53:03.992Z,995.9
2018-12-22T04:54:06.099Z,996.0
2018-12-22T04:55:08.119Z,995.9
2018-12-22T04:56:10.734Z,995.9
2018-12-22T04:57:12.192Z,996.0
2018-12-22T04:58:14.244Z,995.9
2018-12-22T04:59:16.452Z,996.0
2018-12-22T05:00:18.411Z,995.8
2018-12-22T05:01:20.439Z,995.8
2018-12-22T05:02:22.484Z,995.8
2018-12-22T05:03:24.475Z,995.9
2018-12-22T05:04:26.612Z,995.9
2018-12-22T05:05:28.612Z,995.8
2018-12-22T05:06:30.400Z,996.0
2018-12-22T05:07:32.222Z,995.9
2018-12-22T05:08:34.207Z,996.0
2018-12-22T05:09:35.929Z,996.0
2018-12-22T05:10:37.873Z,995.9
2018-12-22T05:11:39.925Z,995.9
2018-12-22T05:12:42.046Z,996.0
2018-12-22T05:13:44.096Z,996.0
2018-12-22T05:14:46.528Z,995.9
2018-12-22T05:15:48.629Z,996.0
2018-12-22T05:16:50.473Z,996.0
2018-12-22T05:17:52.514Z,996.0
2018-12-22T05:18:54.526Z,996.0
2018-12-22T05:19:56.598Z,996.0
2018-12-22T05:20:58.649Z,996.0
2018-12-22T05:22:00.734Z,996.0
2018-12-22T05:23:02.776Z,996.0
2018-12-22T05:24:04.829Z,996.0
2018-12-22T05:25:06.956Z,996.0
2018-12-22T05:26:09.057Z,996.1
2018-12-22T05:27:11.160Z,995.9
2018-12-22T05:28:13.234Z,995.9
2018-12-22T05:29:15.299Z,996.0
2018-12-22T05:30:17.381Z,996.0
2018-12-22T05:31:19.374Z,996.0
2018-12-22T05:32:21.484Z,996.0
2018-12-22T05:33:23.521Z,996.1
2018-12-22T05:34:25.606Z,995.9
2018-12-22T05:35:27.671Z,996.1
2018-12-22T05:36:29.771Z,996.1
2018-12-22T05:37:31.851Z,996.1
2018-12-22T05:38:33.894Z,996.1
2018-12-22T05:39:35.942Z,996.1
2018-12-22T05:40:37.969Z,996.1
2018-12-22T05:41:39.929Z,996.2
2018-12-22T05:42:41.907Z,996.2
2018-12-22T05:43:43.870Z,996.3
2018-12-22T05:44:46.040Z,996.2
2018-12-22T05:45:48.079Z,996.3
2018-12-22T05:46:50.101Z,996.3
2018-12-22T05:47:52.171Z,996.3
2018-12-22T05:48:54.182Z,996.3
2018-12-22T05:49:56.398Z,996.3
2018-12-22T05:50:58.851Z,996.1
2018-12-22T05:52:00.942Z,996.4
2018-12-22T05:53:02.958Z,996.5
2018-12-22T05:54:05.071Z,996.4
2018-12-22T05:55:07.067Z,996.5
2018-12-22T05:56:09.172Z,996.5
2018-12-22T05:57:11.517Z,996.6
2018-12-22T05:58:13.659Z,996.5
2018-12-22T05:59:15.758Z,996.5
2018-12-22T06:00:17.967Z,996.5
2018-12-22T06:01:20.049Z,996.6
2018-12-22T06:02:22.172Z,996.7
2018-12-22T06:03:24.464Z,996.7
2018-12-22T06:04:26.634Z,996.7
2018-12-22T06:05:28.704Z,996.7
2018-12-22T06:06:30.719Z,996.7
2018-12-22T06:07:32.664Z,996.7
2018-12-22T06:08:34.663Z,996.8
2018-12-22T06:09:36.717Z,996.8
2018-12-22T06:10:38.728Z,996.8
2018-12-22T06:11:40.740Z,996.8
2018-12-22T06:12:42.837Z,996.8
2018-12-22T06:13:44.835Z,996.8
2018-12-22T06:14:46.911Z,996.9
2018-12-22T06:15:49.032Z,996.9
2018-12-22T06:16:51.154Z,996.8
2018-12-22T06:17:53.243Z,996.9
2018-12-22T06:18:55.310Z,996.9
2018-12-22T06:19:58.103Z,997.0
2018-12-22T06:21:00.159Z,997.0
2018-12-22T06:22:02.287Z,997.0
2018-12-22T06:23:04.371Z,997.0
2018-12-22T06:24:06.652Z,997.0
2018-12-22T06:25:08.894Z,997.0
2018-12-22T06:26:11.078Z,997.0
2018-12-22T06:27:13.172Z,997.0
2018-12-22T06:28:15.262Z,997.0
2018-12-22T06:29:17.288Z,997.1
2018-12-22T06:30:19.467Z,997.1
2018-12-22T06:31:21.547Z,997.1
2018-12-22T06:32:23.603Z,997.1
2018-12-22T06:33:25.713Z,997.2
2018-12-22T06:34:27.888Z,997.2
2018-12-22T06:35:30.212Z,997.1
2018-12-22T06:36:32.388Z,997.2
2018-12-22T06:37:34.418Z,997.2
2018-12-22T06:38:36.549Z,997.2
2018-12-22T06:39:38.541Z,997.2
2018-12-22T06:40:40.664Z,997.3
2018-12-22T06:41:42.796Z,997.3
2018-12-22T06:42:44.917Z,997.4
2018-12-22T06:43:46.921Z,997.4
2018-12-22T06:44:49.001Z,997.4
2018-12-22T06:45:51.048Z,997.4
2018-12-22T06:46:53.094Z,997.4
2018-12-22T06:47:55.192Z,997.4
2018-12-22T06:48:57.429Z,997.4
2018-12-22T06:49:59.447Z,997.5
2018-12-22T06:51:01.589Z,997.5
2018-12-22T06:52:03.613Z,997.6
2018-12-22T06:53:05.704Z,997.5
2018-12-22T06:54:07.699Z,997.6
2018-12-22T06:55:09.902Z,997.6
2018-12-22T06:56:12.024Z,997.5
2018-12-22T06:57:14.110Z,997.6
2018-12-22T06:58:16.147Z,997.7
2018-12-22T06:59:18.061Z,997.7
2018-12-22T07:00:20.027Z,997.7
2018-12-22T07:01:22.005Z,997.8
2018-12-22T07:02:24.124Z,997.8
2018-12-22T07:03:26.238Z,997.8
2018-12-22T07:04:28.321Z,997.8
2018-12-22T07:05:30.544Z,997.9
2018-12-22T07:06:32.687Z,997.9
2018-12-22T07:07:35.634Z,997.9
2018-12-22T07:08:37.823Z,998.0
2018-12-22T07:09:39.315Z,998.0
2018-12-22T07:10:40.899Z,997.9
2018-12-22T07:11:43.174Z,998.1
2018-12-22T07:12:45.362Z,998.0
2018-12-22T07:13:47.841Z,998.2
2018-12-22T07:14:50.114Z,998.2
2018-12-22T07:15:52.267Z,998.3
2018-12-22T07:16:54.390Z,998.3
2018-12-22T07:17:56.664Z,998.3
2018-12-22T07:18:58.975Z,998.4
2018-12-22T07:20:01.298Z,998.4
2018-12-22T07:21:03.407Z,998.5
2018-12-22T07:22:05.722Z,998.4
2018-12-22T07:23:07.756Z,998.4
2018-12-22T07:24:10.024Z,998.5
2018-12-22T07:25:12.300Z,998.6
2018-12-22T07:26:14.170Z,998.5
2018-12-22T07:27:16.173Z,998.6
2018-12-22T07:28:18.219Z,998.6
2018-12-22T07:29:20.198Z,998.6
2018-12-22T07:30:26.078Z,998.6
2018-12-22T07:31:24.199Z,998.6
2018-12-22T07:32:26.152Z,998.6
2018-12-22T07:33:28.156Z,998.7
2018-12-22T07:34:30.156Z,998.7
2018-12-22T07:35:32.193Z,998.7
2018-12-22T07:36:34.326Z,998.7
2018-12-22T07:37:36.226Z,998.7
2018-12-22T07:38:38.315Z,998.9
2018-12-22T07:39:40.347Z,998.8
2018-12-22T07:40:42.291Z,998.8
2018-12-22T07:41:44.253Z,998.8
2018-12-22T07:42:46.202Z,999.0
2018-12-22T07:43:48.169Z,998.8
2018-12-22T07:44:50.293Z,998.9
2018-12-22T07:45:52.251Z,999.0
2018-12-22T07:46:54.290Z,999.0
2018-12-22T07:47:56.598Z,999.0
2018-12-22T07:48:58.783Z,999.1
2018-12-22T07:50:00.927Z,999.1
2018-12-22T07:51:03.094Z,999.2
2018-12-22T07:52:05.396Z,999.2
2018-12-22T07:53:07.721Z,999.3
2018-12-22T07:54:10.163Z,999.2
2018-12-22T07:55:13.109Z,999.1
2018-12-22T07:56:15.511Z,999.2
2018-12-22T07:57:17.973Z,999.3
2018-12-22T07:58:20.581Z,999.2
2018-12-22T07:59:23.056Z,999.2
2018-12-22T08:00:25.655Z,999.2
2018-12-22T08:01:28.014Z,999.3
2018-12-22T08:02:30.301Z,999.3
2018-12-22T08:03:32.515Z,999.3
2018-12-22T08:04:34.731Z,999.4
2018-12-22T08:05:39.031Z,999.4
2018-12-22T08:06:39.163Z,999.4
2018-12-22T08:07:41.441Z,999.4
2018-12-22T08:08:43.538Z,999.6
2018-12-22T08:09:45.827Z,999.5
2018-12-22T08:10:47.989Z,999.5
2018-12-22T08:11:50.259Z,999.5
2018-12-22T08:12:52.434Z,999.6
2018-12-22T08:13:54.589Z,999.6
2018-12-22T08:14:56.808Z,999.6
2018-12-22T08:15:58.859Z,999.7
2018-12-22T08:17:01.066Z,999.7
2018-12-22T08:18:03.254Z,999.7
2018-12-22T08:19:05.477Z,999.8
2018-12-22T08:20:13.461Z,999.8
2018-12-22T08:21:15.437Z,999.7
2018-12-22T08:22:17.862Z,999.7
2018-12-22T08:23:20.067Z,999.8
2018-12-22T08:24:22.260Z,999.9
2018-12-22T08:25:24.536Z,999.9
2018-12-22T08:26:26.727Z,999.9
2018-12-22T08:27:28.816Z,999.9
2018-12-22T08:28:31.030Z,1000.0
2018-12-22T08:29:33.251Z,1000.0
2018-12-22T08:30:43.270Z,1000.0
2018-12-22T08:31:37.454Z,1000.1
2018-12-22T08:32:39.627Z,1000.0
2018-12-22T08:33:41.894Z,1000.1
2018-12-22T08:34:44.154Z,1000.1
2018-12-22T08:35:46.149Z,1000.1
2018-12-22T08:36:48.384Z,1000.2
2018-12-22T08:37:51.015Z,1000.2
2018-12-22T08:38:53.229Z,1000.2
2018-12-22T08:39:55.546Z,1000.2
2018-12-22T08:40:57.919Z,1000.3
2018-12-22T08:42:00.075Z,1000.2
2018-12-22T08:43:02.318Z,1000.3
2018-12-22T08:44:04.516Z,1000.3
2018-12-22T08:45:06.769Z,1000.3
2018-12-22T08:46:08.918Z,1000.4
2018-12-22T08:47:11.210Z,1000.4
2018-12-22T08:48:13.447Z,1000.5
2018-12-22T08:49:15.658Z,1000.4
2018-12-22T08:50:17.964Z,1000.4
2018-12-22T08:51:20.230Z,1000.5
2018-12-22T08:52:22.302Z,1000.5
2018-12-22T08:53:24.624Z,1000.6
2018-12-22T08:54:27.540Z,1000.6
2018-12-22T08:55:29.700Z,1000.7
2018-12-22T08:56:31.914Z,1000.7
2018-12-22T08:57:34.071Z,1000.7
2018-12-22T08:58:36.351Z,1000.7
2018-12-22T08:59:38.719Z,1000.7
2018-12-22T09:00:40.935Z,1000.8
2018-12-22T09:01:43.159Z,1000.8
2018-12-22T09:02:45.333Z,1000.9
2018-12-22T09:03:47.692Z,1000.9
2018-12-22T09:04:50.002Z,1000.8
2018-12-22T09:05:52.286Z,1001.0
2018-12-22T09:06:54.467Z,1001.0
2018-12-22T09:07:56.898Z,1001.0
2018-12-22T09:08:58.997Z,1001.0
2018-12-22T09:10:01.103Z,1001.1
2018-12-22T09:11:03.377Z,1001.1
2018-12-22T09:12:05.508Z,1001.1
2018-12-22T09:13:07.741Z,1001.2
2018-12-22T09:14:09.969Z,1001.2
2018-12-22T09:15:14.098Z,1001.3
2018-12-22T09:16:14.240Z,1001.3
2018-12-22T09:17:16.446Z,1001.3
2018-12-22T09:18:18.774Z,1001.4
2018-12-22T09:19:21.075Z,1001.4
2018-12-22T09:20:23.233Z,1001.4
2018-12-22T09:21:25.480Z,1001.5
2018-12-22T09:22:27.623Z,1001.6
2018-12-22T09:23:29.669Z,1001.6
2018-12-22T09:24:31.758Z,1001.7
2018-12-22T09:25:33.987Z,1001.7
2018-12-22T09:26:36.061Z,1001.8
2018-12-22T09:27:38.754Z,1001.8
2018-12-22T09:28:41.002Z,1001.8
2018-12-22T09:29:43.292Z,1001.9
2018-12-22T09:30:45.588Z,1002.0
2018-12-22T09:31:47.830Z,1001.9
2018-12-22T09:32:49.966Z,1002.0
2018-12-22T09:33:52.023Z,1002.0
2018-12-22T09:34:53.595Z,1002.1
2018-12-22T09:35:55.635Z,1002.1
2018-12-22T09:36:57.860Z,1002.2
2018-12-22T09:38:00.113Z,1002.2
2018-12-22T09:39:02.243Z,1002.3
2018-12-22T09:40:04.483Z,1002.4
2018-12-22T09:41:06.635Z,1002.4
2018-12-22T09:42:08.794Z,1002.5
2018-12-22T09:43:10.906Z,1002.4
2018-12-22T09:44:13.234Z,1002.4
2018-12-22T09:45:15.408Z,1002.6
2018-12-22T09:46:17.420Z,1002.6
2018-12-22T09:47:19.662Z,1002.6
2018-12-22T09:48:21.825Z,1002.6
2018-12-22T09:49:23.963Z,1002.6
2018-12-22T09:50:26.159Z,1002.6
2018-12-22T09:51:28.449Z,1002.5
2018-12-22T09:52:30.543Z,1002.6
2018-12-22T09:53:32.631Z,1002.6
2018-12-22T09:54:34.829Z,1002.7
2018-12-22T09:55:37.028Z,1002.6
2018-12-22T09:56:39.170Z,1002.6
2018-12-22T09:57:41.359Z,1002.7
2018-12-22T09:58:42.948Z,1002.6
2018-12-22T09:59:44.433Z,1002.7
2018-12-22T10:00:45.936Z,1002.7
2018-12-22T10:01:47.522Z,1002.7
2018-12-22T10:02:49.535Z,1002.7
2018-12-22T10:03:51.503Z,1002.8
2018-12-22T10:04:53.766Z,1002.8
2018-12-22T10:05:56.075Z,1002.8
2018-12-22T10:06:58.462Z,1002.9
2018-12-22T10:08:00.847Z,1002.9
2018-12-22T10:09:02.945Z,1002.9
2018-12-22T10:10:05.304Z,1002.9
2018-12-22T10:11:07.526Z,1002.8
2018-12-22T10:12:09.834Z,1002.9
2018-12-22T10:13:12.271Z,1002.9
2018-12-22T10:14:14.515Z,1002.8
2018-12-22T10:15:16.880Z,1002.9
2018-12-22T10:16:19.249Z,1002.9
2018-12-22T10:17:21.448Z,1003.0
2018-12-22T10:18:23.636Z,1003.0
2018-12-22T10:19:25.908Z,1002.9
2018-12-22T10:20:28.257Z,1003.0
2018-12-22T10:21:30.668Z,1003.0
2018-12-22T10:22:32.969Z,1003.0
2018-12-22T10:23:35.320Z,1003.0
2018-12-22T10:24:37.630Z,1003.0
2018-12-22T10:25:39.973Z,1003.0
2018-12-22T10:26:42.379Z,1003.1
2018-12-22T10:27:44.601Z,1003.0
2018-12-22T10:28:46.927Z,1003.0
2018-12-22T10:29:49.197Z,1003.0
2018-12-22T10:30:51.426Z,1003.1
2018-12-22T10:31:53.670Z,1003.1
2018-12-22T10:32:55.794Z,1003.2
2018-12-22T10:33:58.129Z,1003.1
2018-12-22T10:35:00.427Z,1003.1
2018-12-22T10:36:02.766Z,1003.2
2018-12-22T10:37:04.801Z,1003.2
2018-12-22T10:38:06.974Z,1003.2
2018-12-22T10:39:09.185Z,1003.1
2018-12-22T10:40:12.863Z,1003.2
2018-12-22T10:41:14.259Z,1003.2
2018-12-22T10:42:15.667Z,1003.2
2018-12-22T10:43:17.104Z,1003.2
2018-12-22T10:44:18.521Z,1003.2
2018-12-22T10:45:19.979Z,1003.2
2018-12-22T10:46:21.304Z,1003.2
2018-12-22T10:47:22.734Z,1003.2
2018-12-22T10:48:24.125Z,1003.2
2018-12-22T10:49:25.527Z,1003.2
2018-12-22T10:50:26.904Z,1003.3
2018-12-22T10:51:28.298Z,1003.3
2018-12-22T10:52:29.724Z,1003.3
2018-12-22T10:53:31.110Z,1003.3
2018-12-22T10:54:32.506Z,1003.3
2018-12-22T10:55:33.886Z,1003.3
2018-12-22T10:56:35.340Z,1003.3
2018-12-22T10:57:36.734Z,1003.4
2018-12-22T10:58:38.119Z,1003.4
2018-12-22T10:59:39.551Z,1003.4
2018-12-22T11:00:40.932Z,1003.5
2018-12-22T11:01:42.336Z,1003.5
2018-12-22T11:02:43.734Z,1003.4
2018-12-22T11:03:45.101Z,1003.4
2018-12-22T11:04:46.471Z,1003.4
2018-12-22T11:05:47.854Z,1003.5
2018-12-22T11:06:49.225Z,1003.4
2018-12-22T11:07:50.644Z,1003.5
2018-12-22T11:08:52.031Z,1003.4
2018-12-22T11:09:53.394Z,1003.4
2018-12-22T11:10:54.900Z,1003.4
2018-12-22T11:11:56.227Z,1003.5
2018-12-22T11:12:57.611Z,1003.4
2018-12-22T11:13:59.012Z,1003.4
2018-12-22T11:15:00.406Z,1003.4
2018-12-22T11:16:01.818Z,1003.3
2018-12-22T11:17:03.218Z,1003.4
2018-12-22T11:18:04.718Z,1003.3
2018-12-22T11:19:06.148Z,1003.4
2018-12-22T11:20:07.546Z,1003.4
2018-12-22T11:21:08.943Z,1003.3
2018-12-22T11:22:10.336Z,1003.4
2018-12-22T11:23:20.056Z,1003.4
2018-12-22T11:24:13.255Z,1003.4
2018-12-22T11:25:14.702Z,1003.4
2018-12-22T11:26:16.126Z,1003.3
2018-12-22T11:27:17.566Z,1003.5
2018-12-22T11:28:18.982Z,1003.4
2018-12-22T11:29:20.563Z,1003.4
2018-12-22T11:30:22.726Z,1003.5
2018-12-22T11:31:24.117Z,1003.5
2018-12-22T11:32:25.606Z,1003.4
2018-12-22T11:33:27.091Z,1003.5
2018-12-22T11:34:28.505Z,1003.5
2018-12-22T11:35:29.936Z,1003.6
2018-12-22T11:36:31.354Z,1003.6
2018-12-22T11:37:32.759Z,1003.6
2018-12-22T11:38:34.228Z,1003.6
2018-12-22T11:39:35.660Z,1003.6
2018-12-22T11:40:37.057Z,1003.6
2018-12-22T11:41:38.482Z,1003.7
2018-12-22T11:42:47.429Z,1003.7
2018-12-22T11:43:41.229Z,1003.6
2018-12-22T11:44:42.655Z,1003.6
2018-12-22T11:45:44.076Z,1003.6
2018-12-22T11:46:45.501Z,1003.7
2018-12-22T11:47:46.915Z,1003.6
2018-12-22T11:48:48.329Z,1003.6
2018-12-22T11:49:49.715Z,1003.6
2018-12-22T11:50:51.123Z,1003.6
2018-12-22T11:51:52.549Z,1003.6
2018-12-22T11:52:54.015Z,1003.7
2018-12-22T11:53:55.449Z,1003.6
2018-12-22T11:54:56.859Z,1003.7
2018-12-22T11:55:58.264Z,1003.7
2018-12-22T11:56:59.698Z,1003.7
2018-12-22T11:58:01.278Z,1003.6
2018-12-22T11:59:02.552Z,1003.7
2018-12-22T12:00:03.992Z,1003.7
2018-12-22T12:01:05.360Z,1003.7
2018-12-22T12:02:09.895Z,1003.7
2018-12-22T12:03:08.263Z,1003.7
2018-12-22T12:04:09.738Z,1003.7
2018-12-22T12:05:11.183Z,1003.6
2018-12-22T12:06:12.591Z,1003.7
2018-12-22T12:07:14.049Z,1003.6
2018-12-22T12:08:15.483Z,1003.7
2018-12-22T12:09:16.917Z,1003.7
2018-12-22T12:10:18.361Z,1003.7
2018-12-22T12:11:19.797Z,1003.7
2018-12-22T12:12:21.231Z,1003.7
2018-12-22T12:13:22.633Z,1003.7
2018-12-22T12:14:24.027Z,1003.7
2018-12-22T12:15:25.428Z,1003.8
2018-12-22T12:16:26.859Z,1003.8
2018-12-22T12:17:28.284Z,1003.7
2018-12-22T12:18:29.787Z,1003.7
2018-12-22T12:19:31.224Z,1003.7
2018-12-22T12:20:32.624Z,1003.8
2018-12-22T12:21:34.037Z,1003.7
2018-12-22T12:22:35.459Z,1003.8
2018-12-22T12:23:36.883Z,1003.7
2018-12-22T12:24:38.286Z,1003.8
2018-12-22T12:25:39.725Z,1003.8
2018-12-22T12:26:41.201Z,1003.9
2018-12-22T12:27:42.605Z,1003.8
2018-12-22T12:28:44.051Z,1003.8
2018-12-22T12:29:45.482Z,1003.8
2018-12-22T12:30:46.936Z,1003.8
2018-12-22T12:31:52.084Z,1003.7
2018-12-22T12:32:49.718Z,1003.9
2018-12-22T12:33:51.365Z,1003.9
2018-12-22T12:34:52.767Z,1003.9
2018-12-22T12:35:54.178Z,1004.0
2018-12-22T12:36:55.592Z,1004.1
2018-12-22T12:37:57.048Z,1004.1
2018-12-22T12:38:58.520Z,1004.1
2018-12-22T12:39:59.956Z,1004.1
2018-12-22T12:41:01.409Z,1004.1
2018-12-22T12:42:02.856Z,1004.1
2018-12-22T12:43:04.300Z,1004.0
2018-12-22T12:44:05.752Z,1004.1
2018-12-22T12:45:07.199Z,1004.1
2018-12-22T12:46:08.630Z,1004.1
2018-12-22T12:47:10.110Z,1004.2
2018-12-22T12:48:11.559Z,1004.2
2018-12-22T12:49:13.013Z,1004.2
2018-12-22T12:50:14.440Z,1004.2
2018-12-22T12:51:15.883Z,1004.2
2018-12-22T12:52:17.345Z,1004.2
2018-12-22T12:53:18.794Z,1004.3
2018-12-22T12:54:20.288Z,1004.2
2018-12-22T12:55:21.716Z,1004.2
2018-12-22T12:56:23.198Z,1004.2
2018-12-22T12:57:24.630Z,1004.2
2018-12-22T12:58:26.168Z,1004.2
2018-12-22T12:59:27.592Z,1004.1
2018-12-22T13:00:29.040Z,1004.3
2018-12-22T13:01:30.469Z,1004.1
2018-12-22T13:02:31.937Z,1004.2
2018-12-22T13:03:33.390Z,1004.2
2018-12-22T13:04:34.856Z,1004.2
2018-12-22T13:05:36.313Z,1004.2
2018-12-22T13:06:37.744Z,1004.2
2018-12-22T13:07:39.188Z,1004.3
2018-12-22T13:08:40.627Z,1004.3
2018-12-22T13:09:42.051Z,1004.2
2018-12-22T13:10:43.491Z,1004.3
2018-12-22T13:11:44.898Z,1004.4
2018-12-22T13:12:46.328Z,1004.3
2018-12-22T13:13:47.757Z,1004.4